sensor_id;sensor_type;location;lat;lon;timestamp;P1;durP1;ratioP1;P2;durP2;ratioP2
54823;SDS011;40724;53.196;5.980;2022-12-10T00:01:20;66.30;;;37.25;;
54823;SDS011;40724;53.196;5.980;2022-12-10T00:03:47;81.35;;;40.72;;
54823;SDS011;40724;53.196;5.980;2022-12-10T00:06:14;65.60;;;36.35;;
54823;SDS011;40724;53.196;5.980;2022-12-10T00:08:41;74.85;;;38.17;;
54823;SDS011;40724;53.196;5.980;2022-12-10T00:11:08;67.45;;;38.85;;
54823;SDS011;40724;53.196;5.980;2022-12-10T00:13:35;68.93;;;40.33;;
54823;SDS011;40724;53.196;5.980;2022-12-10T00:16:02;63.53;;;36.10;;
54823;SDS011;40724;53.196;5.980;2022-12-10T00:18:28;69.13;;;40.17;;
54823;SDS011;40724;53.196;5.980;2022-12-10T00:20:54;73.95;;;39.30;;
54823;SDS011;40724;53.196;5.980;2022-12-10T00:23:20;70.25;;;37.65;;
54823;SDS011;40724;53.196;5.980;2022-12-10T00:25:47;63.97;;;39.80;;
54823;SDS011;40724;53.196;5.980;2022-12-10T00:28:13;67.35;;;38.65;;
54823;SDS011;40724;53.196;5.980;2022-12-10T00:30:39;67.88;;;40.13;;
54823;SDS011;40724;53.196;5.980;2022-12-10T00:33:05;73.25;;;38.83;;
54823;SDS011;40724;53.196;5.980;2022-12-10T00:35:34;74.55;;;41.78;;
54823;SDS011;40724;53.196;5.980;2022-12-10T00:38:00;90.65;;;45.35;;
54823;SDS011;40724;53.196;5.980;2022-12-10T00:40:27;84.88;;;43.05;;
54823;SDS011;40724;53.196;5.980;2022-12-10T00:42:53;71.15;;;38.70;;
54823;SDS011;40724;53.196;5.980;2022-12-10T00:45:19;83.53;;;41.65;;
54823;SDS011;40724;53.196;5.980;2022-12-10T00:47:45;76.88;;;41.97;;
54823;SDS011;40724;53.196;5.980;2022-12-10T00:50:11;85.32;;;45.03;;
54823;SDS011;40724;53.196;5.980;2022-12-10T00:52:39;76.10;;;40.55;;
54823;SDS011;40724;53.196;5.980;2022-12-10T00:55:06;72.65;;;42.95;;
54823;SDS011;40724;53.196;5.980;2022-12-10T00:57:32;76.38;;;40.65;;
54823;SDS011;40724;53.196;5.980;2022-12-10T00:59:58;83.40;;;43.33;;
54823;SDS011;40724;53.196;5.980;2022-12-10T01:02:24;87.00;;;44.05;;
54823;SDS011;40724;53.196;5.980;2022-12-10T01:04:53;76.18;;;43.70;;
54823;SDS011;40724;53.196;5.980;2022-12-10T01:07:19;81.30;;;43.92;;
54823;SDS011;40724;53.196;5.980;2022-12-10T01:09:45;88.72;;;45.65;;
54823;SDS011;40724;53.196;5.980;2022-12-10T01:12:11;87.80;;;44.63;;
54823;SDS011;40724;53.196;5.980;2022-12-10T01:14:38;81.55;;;43.28;;
54823;SDS011;40724;53.196;5.980;2022-12-10T01:17:04;79.13;;;44.33;;
54823;SDS011;40724;53.196;5.980;2022-12-10T01:19:31;94.10;;;45.72;;
54823;SDS011;40724;53.196;5.980;2022-12-10T01:21:57;95.35;;;48.05;;
54823;SDS011;40724;53.196;5.980;2022-12-10T01:24:27;90.35;;;45.38;;
54823;SDS011;40724;53.196;5.980;2022-12-10T01:26:53;97.80;;;47.15;;
54823;SDS011;40724;53.196;5.980;2022-12-10T01:29:22;97.88;;;49.03;;
54823;SDS011;40724;53.196;5.980;2022-12-10T01:31:52;84.05;;;46.08;;
54823;SDS011;40724;53.196;5.980;2022-12-10T01:34:18;97.30;;;45.83;;
54823;SDS011;40724;53.196;5.980;2022-12-10T01:36:45;95.28;;;42.88;;
54823;SDS011;40724;53.196;5.980;2022-12-10T01:39:14;96.28;;;45.45;;
54823;SDS011;40724;53.196;5.980;2022-12-10T01:41:42;91.28;;;46.33;;
54823;SDS011;40724;53.196;5.980;2022-12-10T01:46:36;84.13;;;45.60;;
54823;SDS011;40724;53.196;5.980;2022-12-10T01:49:04;92.47;;;45.80;;
54823;SDS011;40724;53.196;5.980;2022-12-10T01:51:32;84.78;;;45.70;;
54823;SDS011;40724;53.196;5.980;2022-12-10T01:53:59;85.13;;;45.53;;
54823;SDS011;40724;53.196;5.980;2022-12-10T01:56:26;86.15;;;45.25;;
54823;SDS011;40724;53.196;5.980;2022-12-10T01:58:54;77.18;;;41.95;;
54823;SDS011;40724;53.196;5.980;2022-12-10T02:04:12;80.97;;;42.60;;
54823;SDS011;40724;53.196;5.980;2022-12-10T02:14:25;81.22;;;44.70;;
54823;SDS011;40724;53.196;5.980;2022-12-10T02:16:58;79.60;;;45.25;;
54823;SDS011;40724;53.196;5.980;2022-12-10T02:22:05;89.20;;;45.15;;
54823;SDS011;40724;53.196;5.980;2022-12-10T02:24:32;88.28;;;45.85;;
54823;SDS011;40724;53.196;5.980;2022-12-10T02:29:44;97.15;;;46.90;;
54823;SDS011;40724;53.196;5.980;2022-12-10T02:32:13;91.70;;;45.95;;
54823;SDS011;40724;53.196;5.980;2022-12-10T02:34:41;85.97;;;44.33;;
54823;SDS011;40724;53.196;5.980;2022-12-10T02:37:10;90.15;;;47.00;;
54823;SDS011;40724;53.196;5.980;2022-12-10T02:39:38;93.47;;;47.92;;
54823;SDS011;40724;53.196;5.980;2022-12-10T02:42:05;79.07;;;44.85;;
54823;SDS011;40724;53.196;5.980;2022-12-10T02:44:33;86.50;;;45.45;;
54823;SDS011;40724;53.196;5.980;2022-12-10T02:47:04;87.15;;;46.08;;
54823;SDS011;40724;53.196;5.980;2022-12-10T02:49:31;100.15;;;45.80;;
54823;SDS011;40724;53.196;5.980;2022-12-10T02:51:58;83.95;;;44.17;;
54823;SDS011;40724;53.196;5.980;2022-12-10T02:54:39;88.47;;;44.47;;
54823;SDS011;40724;53.196;5.980;2022-12-10T02:57:12;84.35;;;43.28;;
54823;SDS011;40724;53.196;5.980;2022-12-10T03:02:29;79.75;;;41.30;;
54823;SDS011;40724;53.196;5.980;2022-12-10T03:05:00;92.82;;;44.20;;
54823;SDS011;40724;53.196;5.980;2022-12-10T03:07:35;85.30;;;43.83;;
54823;SDS011;40724;53.196;5.980;2022-12-10T03:10:07;97.70;;;45.30;;
54823;SDS011;40724;53.196;5.980;2022-12-10T03:12:38;103.57;;;44.53;;
54823;SDS011;40724;53.196;5.980;2022-12-10T03:15:06;87.00;;;42.08;;
54823;SDS011;40724;53.196;5.980;2022-12-10T03:17:34;92.53;;;43.60;;
54823;SDS011;40724;53.196;5.980;2022-12-10T03:20:06;97.80;;;45.45;;
54823;SDS011;40724;53.196;5.980;2022-12-10T03:22:33;101.32;;;50.00;;
54823;SDS011;40724;53.196;5.980;2022-12-10T03:25:00;93.93;;;44.67;;
54823;SDS011;40724;53.196;5.980;2022-12-10T03:27:27;87.07;;;45.95;;
54823;SDS011;40724;53.196;5.980;2022-12-10T03:29:56;83.40;;;42.90;;
54823;SDS011;40724;53.196;5.980;2022-12-10T03:32:26;98.30;;;45.22;;
54823;SDS011;40724;53.196;5.980;2022-12-10T03:34:54;98.97;;;44.55;;
54823;SDS011;40724;53.196;5.980;2022-12-10T03:37:21;90.85;;;47.25;;
54823;SDS011;40724;53.196;5.980;2022-12-10T03:39:47;81.78;;;43.40;;
54823;SDS011;40724;53.196;5.980;2022-12-10T03:42:13;106.78;;;45.00;;
54823;SDS011;40724;53.196;5.980;2022-12-10T03:44:40;85.78;;;44.78;;
54823;SDS011;40724;53.196;5.980;2022-12-10T03:47:06;82.40;;;42.45;;
54823;SDS011;40724;53.196;5.980;2022-12-10T03:49:33;114.28;;;45.88;;
54823;SDS011;40724;53.196;5.980;2022-12-10T03:51:59;124.70;;;46.58;;
54823;SDS011;40724;53.196;5.980;2022-12-10T03:54:25;134.98;;;50.95;;
54823;SDS011;40724;53.196;5.980;2022-12-10T03:56:52;141.20;;;46.60;;
54823;SDS011;40724;53.196;5.980;2022-12-10T03:59:18;162.02;;;51.05;;
54823;SDS011;40724;53.196;5.980;2022-12-10T04:01:44;154.77;;;53.92;;
54823;SDS011;40724;53.196;5.980;2022-12-10T04:04:10;142.32;;;50.88;;
54823;SDS011;40724;53.196;5.980;2022-12-10T04:06:37;138.75;;;52.85;;
54823;SDS011;40724;53.196;5.980;2022-12-10T04:09:04;129.05;;;53.55;;
54823;SDS011;40724;53.196;5.980;2022-12-10T04:11:30;144.93;;;51.75;;
54823;SDS011;40724;53.196;5.980;2022-12-10T04:13:56;142.50;;;51.88;;
54823;SDS011;40724;53.196;5.980;2022-12-10T04:16:41;116.38;;;50.42;;
54823;SDS011;40724;53.196;5.980;2022-12-10T04:19:08;161.30;;;56.97;;
54823;SDS011;40724;53.196;5.980;2022-12-10T04:21:35;126.38;;;52.58;;
54823;SDS011;40724;53.196;5.980;2022-12-10T04:24:21;111.20;;;51.30;;
54823;SDS011;40724;53.196;5.980;2022-12-10T04:27:08;192.27;;;56.35;;
54823;SDS011;40724;53.196;5.980;2022-12-10T04:29:34;205.35;;;58.55;;
54823;SDS011;40724;53.196;5.980;2022-12-10T04:32:00;140.23;;;51.83;;
54823;SDS011;40724;53.196;5.980;2022-12-10T04:34:27;123.85;;;50.88;;
54823;SDS011;40724;53.196;5.980;2022-12-10T04:36:56;183.70;;;58.53;;
54823;SDS011;40724;53.196;5.980;2022-12-10T04:39:23;251.32;;;64.68;;
54823;SDS011;40724;53.196;5.980;2022-12-10T04:41:49;194.63;;;62.42;;
54823;SDS011;40724;53.196;5.980;2022-12-10T04:44:15;118.55;;;52.17;;
54823;SDS011;40724;53.196;5.980;2022-12-10T04:46:41;195.52;;;68.05;;
54823;SDS011;40724;53.196;5.980;2022-12-10T04:49:07;162.32;;;58.70;;
54823;SDS011;40724;53.196;5.980;2022-12-10T04:51:34;167.52;;;60.63;;
54823;SDS011;40724;53.196;5.980;2022-12-10T04:54:00;180.65;;;62.90;;
54823;SDS011;40724;53.196;5.980;2022-12-10T04:56:26;186.48;;;62.78;;
54823;SDS011;40724;53.196;5.980;2022-12-10T04:58:55;157.73;;;58.47;;
54823;SDS011;40724;53.196;5.980;2022-12-10T05:01:21;200.88;;;57.70;;
54823;SDS011;40724;53.196;5.980;2022-12-10T05:03:47;127.97;;;52.72;;
54823;SDS011;40724;53.196;5.980;2022-12-10T05:06:14;130.68;;;54.03;;
54823;SDS011;40724;53.196;5.980;2022-12-10T05:08:42;123.18;;;48.67;;
54823;SDS011;40724;53.196;5.980;2022-12-10T05:11:09;222.73;;;62.42;;
54823;SDS011;40724;53.196;5.980;2022-12-10T05:13:36;163.32;;;54.15;;
54823;SDS011;40724;53.196;5.980;2022-12-10T05:16:03;153.82;;;52.00;;
54823;SDS011;40724;53.196;5.980;2022-12-10T05:18:29;173.90;;;56.38;;
54823;SDS011;40724;53.196;5.980;2022-12-10T05:20:58;215.70;;;60.10;;
54823;SDS011;40724;53.196;5.980;2022-12-10T05:23:24;249.55;;;58.78;;
54823;SDS011;40724;53.196;5.980;2022-12-10T05:25:57;295.50;;;58.65;;
54823;SDS011;40724;53.196;5.980;2022-12-10T05:28:23;100.22;;;45.00;;
54823;SDS011;40724;53.196;5.980;2022-12-10T05:30:49;181.88;;;49.50;;
54823;SDS011;40724;53.196;5.980;2022-12-10T05:33:16;127.13;;;40.08;;
54823;SDS011;40724;53.196;5.980;2022-12-10T05:35:42;181.07;;;45.25;;
54823;SDS011;40724;53.196;5.980;2022-12-10T05:38:08;187.32;;;49.38;;
54823;SDS011;40724;53.196;5.980;2022-12-10T05:40:36;202.02;;;48.47;;
54823;SDS011;40724;53.196;5.980;2022-12-10T05:43:02;227.35;;;53.60;;
54823;SDS011;40724;53.196;5.980;2022-12-10T05:45:28;124.22;;;38.38;;
54823;SDS011;40724;53.196;5.980;2022-12-10T05:47:54;169.15;;;37.03;;
54823;SDS011;40724;53.196;5.980;2022-12-10T05:50:20;139.80;;;39.45;;
54823;SDS011;40724;53.196;5.980;2022-12-10T05:52:47;112.03;;;36.05;;
54823;SDS011;40724;53.196;5.980;2022-12-10T05:55:13;104.65;;;37.78;;
54823;SDS011;40724;53.196;5.980;2022-12-10T05:57:39;141.18;;;37.47;;
54823;SDS011;40724;53.196;5.980;2022-12-10T06:00:05;129.30;;;38.38;;
54823;SDS011;40724;53.196;5.980;2022-12-10T06:02:34;164.30;;;45.75;;
54823;SDS011;40724;53.196;5.980;2022-12-10T06:05:00;172.02;;;40.28;;
54823;SDS011;40724;53.196;5.980;2022-12-10T06:07:26;134.13;;;40.05;;
54823;SDS011;40724;53.196;5.980;2022-12-10T06:09:52;173.63;;;40.45;;
54823;SDS011;40724;53.196;5.980;2022-12-10T06:12:18;176.68;;;44.13;;
54823;SDS011;40724;53.196;5.980;2022-12-10T06:14:45;183.77;;;41.08;;
54823;SDS011;40724;53.196;5.980;2022-12-10T06:17:12;151.00;;;36.80;;
54823;SDS011;40724;53.196;5.980;2022-12-10T06:19:38;145.77;;;42.08;;
54823;SDS011;40724;53.196;5.980;2022-12-10T06:22:04;129.73;;;37.65;;
54823;SDS011;40724;53.196;5.980;2022-12-10T06:24:30;125.18;;;36.70;;
54823;SDS011;40724;53.196;5.980;2022-12-10T06:26:56;169.55;;;41.28;;
54823;SDS011;40724;53.196;5.980;2022-12-10T06:29:22;191.15;;;42.50;;
54823;SDS011;40724;53.196;5.980;2022-12-10T06:31:49;119.30;;;36.53;;
54823;SDS011;40724;53.196;5.980;2022-12-10T06:34:15;158.18;;;40.65;;
54823;SDS011;40724;53.196;5.980;2022-12-10T06:36:41;105.07;;;38.58;;
54823;SDS011;40724;53.196;5.980;2022-12-10T06:39:07;96.13;;;37.22;;
54823;SDS011;40724;53.196;5.980;2022-12-10T06:41:33;164.93;;;44.50;;
54823;SDS011;40724;53.196;5.980;2022-12-10T06:43:59;184.38;;;44.33;;
54823;SDS011;40724;53.196;5.980;2022-12-10T06:46:25;199.63;;;46.22;;
54823;SDS011;40724;53.196;5.980;2022-12-10T06:48:55;118.25;;;36.63;;
54823;SDS011;40724;53.196;5.980;2022-12-10T06:51:21;109.55;;;35.22;;
54823;SDS011;40724;53.196;5.980;2022-12-10T06:53:47;96.82;;;35.35;;
54823;SDS011;40724;53.196;5.980;2022-12-10T06:56:15;211.27;;;45.80;;
54823;SDS011;40724;53.196;5.980;2022-12-10T06:58:45;166.93;;;41.13;;
54823;SDS011;40724;53.196;5.980;2022-12-10T07:01:13;86.93;;;32.75;;
54823;SDS011;40724;53.196;5.980;2022-12-10T07:03:40;114.22;;;38.42;;
54823;SDS011;40724;53.196;5.980;2022-12-10T07:06:07;170.50;;;47.42;;
54823;SDS011;40724;53.196;5.980;2022-12-10T07:08:34;214.65;;;43.03;;
54823;SDS011;40724;53.196;5.980;2022-12-10T07:11:04;148.73;;;39.20;;
54823;SDS011;40724;53.196;5.980;2022-12-10T07:13:30;104.65;;;35.72;;
54823;SDS011;40724;53.196;5.980;2022-12-10T07:15:57;173.57;;;43.05;;
54823;SDS011;40724;53.196;5.980;2022-12-10T07:18:23;193.35;;;47.03;;
54823;SDS011;40724;53.196;5.980;2022-12-10T07:20:49;158.10;;;42.85;;
54823;SDS011;40724;53.196;5.980;2022-12-10T07:23:15;201.52;;;43.47;;
54823;SDS011;40724;53.196;5.980;2022-12-10T07:25:41;188.15;;;44.95;;
54823;SDS011;40724;53.196;5.980;2022-12-10T07:28:07;208.02;;;46.97;;
54823;SDS011;40724;53.196;5.980;2022-12-10T07:30:33;212.93;;;45.97;;
54823;SDS011;40724;53.196;5.980;2022-12-10T07:33:00;190.02;;;43.55;;
54823;SDS011;40724;53.196;5.980;2022-12-10T07:35:26;217.38;;;49.47;;
54823;SDS011;40724;53.196;5.980;2022-12-10T07:37:52;155.20;;;46.03;;
54823;SDS011;40724;53.196;5.980;2022-12-10T07:40:18;242.05;;;48.88;;
54823;SDS011;40724;53.196;5.980;2022-12-10T07:42:44;84.32;;;36.53;;
54823;SDS011;40724;53.196;5.980;2022-12-10T07:45:10;199.43;;;46.97;;
54823;SDS011;40724;53.196;5.980;2022-12-10T07:47:37;192.18;;;43.85;;
54823;SDS011;40724;53.196;5.980;2022-12-10T07:50:04;191.75;;;54.08;;
54823;SDS011;40724;53.196;5.980;2022-12-10T07:52:31;166.32;;;44.25;;
54823;SDS011;40724;53.196;5.980;2022-12-10T07:54:57;164.85;;;45.83;;
54823;SDS011;40724;53.196;5.980;2022-12-10T07:57:23;150.60;;;45.42;;
54823;SDS011;40724;53.196;5.980;2022-12-10T07:59:49;156.85;;;40.97;;
54823;SDS011;40724;53.196;5.980;2022-12-10T08:02:15;181.07;;;44.92;;
54823;SDS011;40724;53.196;5.980;2022-12-10T08:04:41;174.13;;;46.00;;
54823;SDS011;40724;53.196;5.980;2022-12-10T08:07:07;167.88;;;43.95;;
54823;SDS011;40724;53.196;5.980;2022-12-10T08:09:34;210.80;;;49.90;;
54823;SDS011;40724;53.196;5.980;2022-12-10T08:12:00;199.00;;;49.75;;
54823;SDS011;40724;53.196;5.980;2022-12-10T08:14:26;160.52;;;46.35;;
54823;SDS011;40724;53.196;5.980;2022-12-10T08:16:52;211.95;;;48.78;;
54823;SDS011;40724;53.196;5.980;2022-12-10T08:19:18;185.15;;;44.17;;
54823;SDS011;40724;53.196;5.980;2022-12-10T08:21:44;175.48;;;45.72;;
54823;SDS011;40724;53.196;5.980;2022-12-10T08:24:10;164.05;;;44.50;;
54823;SDS011;40724;53.196;5.980;2022-12-10T08:26:36;151.65;;;40.92;;
54823;SDS011;40724;53.196;5.980;2022-12-10T08:29:03;197.57;;;52.72;;
54823;SDS011;40724;53.196;5.980;2022-12-10T08:31:29;189.15;;;41.45;;
54823;SDS011;40724;53.196;5.980;2022-12-10T08:33:56;194.57;;;47.17;;
54823;SDS011;40724;53.196;5.980;2022-12-10T08:36:22;233.50;;;49.00;;
54823;SDS011;40724;53.196;5.980;2022-12-10T08:38:48;214.45;;;49.72;;
54823;SDS011;40724;53.196;5.980;2022-12-10T08:41:15;214.77;;;45.03;;
54823;SDS011;40724;53.196;5.980;2022-12-10T08:43:43;227.75;;;46.47;;
54823;SDS011;40724;53.196;5.980;2022-12-10T08:46:09;215.20;;;47.42;;
54823;SDS011;40724;53.196;5.980;2022-12-10T08:48:36;146.30;;;38.47;;
54823;SDS011;40724;53.196;5.980;2022-12-10T08:51:02;220.13;;;47.28;;
54823;SDS011;40724;53.196;5.980;2022-12-10T08:53:28;219.25;;;45.90;;
54823;SDS011;40724;53.196;5.980;2022-12-10T08:55:55;108.47;;;35.80;;
54823;SDS011;40724;53.196;5.980;2022-12-10T08:58:21;172.18;;;41.53;;
54823;SDS011;40724;53.196;5.980;2022-12-10T09:00:48;180.32;;;42.17;;
54823;SDS011;40724;53.196;5.980;2022-12-10T09:03:14;169.45;;;41.08;;
54823;SDS011;40724;53.196;5.980;2022-12-10T09:05:41;206.23;;;43.90;;
54823;SDS011;40724;53.196;5.980;2022-12-10T09:08:07;124.38;;;36.00;;
54823;SDS011;40724;53.196;5.980;2022-12-10T09:10:34;131.43;;;38.60;;
54823;SDS011;40724;53.196;5.980;2022-12-10T09:13:01;144.27;;;37.00;;
54823;SDS011;40724;53.196;5.980;2022-12-10T09:15:27;159.77;;;40.28;;
54823;SDS011;40724;53.196;5.980;2022-12-10T09:17:53;109.57;;;31.45;;
54823;SDS011;40724;53.196;5.980;2022-12-10T09:20:20;202.15;;;41.15;;
54823;SDS011;40724;53.196;5.980;2022-12-10T09:22:46;91.72;;;34.47;;
54823;SDS011;40724;53.196;5.980;2022-12-10T09:25:12;183.85;;;39.90;;
54823;SDS011;40724;53.196;5.980;2022-12-10T09:27:42;139.70;;;36.53;;
54823;SDS011;40724;53.196;5.980;2022-12-10T09:30:08;107.00;;;32.90;;
54823;SDS011;40724;53.196;5.980;2022-12-10T09:32:35;179.95;;;37.85;;
54823;SDS011;40724;53.196;5.980;2022-12-10T09:35:01;182.25;;;38.38;;
54823;SDS011;40724;53.196;5.980;2022-12-10T09:37:27;215.90;;;40.42;;
54823;SDS011;40724;53.196;5.980;2022-12-10T09:39:53;160.43;;;36.45;;
54823;SDS011;40724;53.196;5.980;2022-12-10T09:47:12;100.68;;;30.90;;
54823;SDS011;40724;53.196;5.980;2022-12-10T09:49:41;132.35;;;33.92;;
54823;SDS011;40724;53.196;5.980;2022-12-10T09:52:14;133.65;;;32.10;;
54823;SDS011;40724;53.196;5.980;2022-12-10T09:54:42;173.68;;;36.78;;
54823;SDS011;40724;53.196;5.980;2022-12-10T09:57:23;130.55;;;35.63;;
54823;SDS011;40724;53.196;5.980;2022-12-10T09:59:51;94.43;;;29.08;;
54823;SDS011;40724;53.196;5.980;2022-12-10T10:04:47;163.80;;;35.67;;
54823;SDS011;40724;53.196;5.980;2022-12-10T10:07:31;67.78;;;28.65;;
54823;SDS011;40724;53.196;5.980;2022-12-10T10:09:59;91.20;;;29.52;;
54823;SDS011;40724;53.196;5.980;2022-12-10T10:12:30;89.60;;;31.15;;
54823;SDS011;40724;53.196;5.980;2022-12-10T10:14:57;86.05;;;32.10;;
54823;SDS011;40724;53.196;5.980;2022-12-10T10:17:27;141.55;;;36.35;;
54823;SDS011;40724;53.196;5.980;2022-12-10T10:19:54;218.50;;;38.70;;
54823;SDS011;40724;53.196;5.980;2022-12-10T10:22:21;77.75;;;29.73;;
54823;SDS011;40724;53.196;5.980;2022-12-10T10:24:47;113.07;;;31.00;;
54823;SDS011;40724;53.196;5.980;2022-12-10T10:27:23;152.85;;;35.40;;
54823;SDS011;40724;53.196;5.980;2022-12-10T10:29:52;136.50;;;33.58;;
54823;SDS011;40724;53.196;5.980;2022-12-10T10:34:45;130.30;;;34.50;;
54823;SDS011;40724;53.196;5.980;2022-12-10T10:37:14;140.05;;;34.97;;
54823;SDS011;40724;53.196;5.980;2022-12-10T10:39:41;118.25;;;29.38;;
54823;SDS011;40724;53.196;5.980;2022-12-10T10:42:14;117.07;;;31.88;;
54823;SDS011;40724;53.196;5.980;2022-12-10T10:44:43;196.23;;;39.22;;
54823;SDS011;40724;53.196;5.980;2022-12-10T10:47:26;172.88;;;35.47;;
54823;SDS011;40724;53.196;5.980;2022-12-10T10:49:52;126.00;;;33.63;;
54823;SDS011;40724;53.196;5.980;2022-12-10T10:52:18;149.93;;;38.00;;
54823;SDS011;40724;53.196;5.980;2022-12-10T10:54:45;228.40;;;39.25;;
54823;SDS011;40724;53.196;5.980;2022-12-10T10:57:25;165.60;;;37.67;;
54823;SDS011;40724;53.196;5.980;2022-12-10T10:59:53;104.32;;;29.15;;
54823;SDS011;40724;53.196;5.980;2022-12-10T11:02:30;84.22;;;29.42;;
54823;SDS011;40724;53.196;5.980;2022-12-10T11:04:57;127.03;;;34.30;;
54823;SDS011;40724;53.196;5.980;2022-12-10T11:07:37;111.15;;;29.38;;
54823;SDS011;40724;53.196;5.980;2022-12-10T11:10:38;111.25;;;32.90;;
54823;SDS011;40724;53.196;5.980;2022-12-10T11:15:30;158.82;;;33.63;;
54823;SDS011;40724;53.196;5.980;2022-12-10T11:17:57;97.80;;;29.20;;
54823;SDS011;40724;53.196;5.980;2022-12-10T11:20:25;121.90;;;31.10;;
54823;SDS011;40724;53.196;5.980;2022-12-10T11:22:56;179.70;;;38.00;;
54823;SDS011;40724;53.196;5.980;2022-12-10T11:28:08;171.77;;;39.97;;
54823;SDS011;40724;53.196;5.980;2022-12-10T11:30:40;120.68;;;36.05;;
54823;SDS011;40724;53.196;5.980;2022-12-10T11:33:20;164.05;;;37.50;;
54823;SDS011;40724;53.196;5.980;2022-12-10T11:35:57;197.98;;;42.45;;
54823;SDS011;40724;53.196;5.980;2022-12-10T11:43:33;156.73;;;40.90;;
54823;SDS011;40724;53.196;5.980;2022-12-10T11:48:46;141.30;;;38.05;;
54823;SDS011;40724;53.196;5.980;2022-12-10T11:51:18;96.88;;;33.42;;
54823;SDS011;40724;53.196;5.980;2022-12-10T12:09:11;127.82;;;42.30;;
54823;SDS011;40724;53.196;5.980;2022-12-10T12:14:32;97.18;;;35.25;;
54823;SDS011;40724;53.196;5.980;2022-12-10T12:17:03;79.35;;;32.88;;
54823;SDS011;40724;53.196;5.980;2022-12-10T12:19:37;99.85;;;37.25;;
54823;SDS011;40724;53.196;5.980;2022-12-10T12:22:21;81.10;;;33.95;;
54823;SDS011;40724;53.196;5.980;2022-12-10T12:24:48;77.80;;;36.13;;
54823;SDS011;40724;53.196;5.980;2022-12-10T12:32:33;87.93;;;37.42;;
54823;SDS011;40724;53.196;5.980;2022-12-10T12:35:02;69.15;;;32.83;;
54823;SDS011;40724;53.196;5.980;2022-12-10T12:38:15;72.05;;;34.60;;
54823;SDS011;40724;53.196;5.980;2022-12-10T12:40:28;124.03;;;38.70;;
54823;SDS011;40724;53.196;5.980;2022-12-10T12:42:59;67.05;;;32.58;;
54823;SDS011;40724;53.196;5.980;2022-12-10T12:45:39;124.85;;;42.67;;
54823;SDS011;40724;53.196;5.980;2022-12-10T12:53:22;110.60;;;38.70;;
54823;SDS011;40724;53.196;5.980;2022-12-10T12:58:31;91.85;;;34.85;;
54823;SDS011;40724;53.196;5.980;2022-12-10T13:01:03;90.10;;;35.83;;
54823;SDS011;40724;53.196;5.980;2022-12-10T13:09:15;92.03;;;37.58;;
54823;SDS011;40724;53.196;5.980;2022-12-10T13:11:30;86.78;;;36.75;;
54823;SDS011;40724;53.196;5.980;2022-12-10T13:16:53;83.88;;;34.53;;
54823;SDS011;40724;53.196;5.980;2022-12-10T13:19:25;108.78;;;39.78;;
54823;SDS011;40724;53.196;5.980;2022-12-10T13:34:43;53.97;;;30.30;;
54823;SDS011;40724;53.196;5.980;2022-12-10T13:39:52;58.95;;;31.50;;
54823;SDS011;40724;53.196;5.980;2022-12-10T13:42:27;60.63;;;30.17;;
54823;SDS011;40724;53.196;5.980;2022-12-10T13:45:23;55.27;;;30.83;;
54823;SDS011;40724;53.196;5.980;2022-12-10T13:47:53;63.75;;;29.70;;
54823;SDS011;40724;53.196;5.980;2022-12-10T14:00:35;72.82;;;36.35;;
54823;SDS011;40724;53.196;5.980;2022-12-10T14:08:35;70.05;;;37.30;;
54823;SDS011;40724;53.196;5.980;2022-12-10T14:11:10;73.57;;;37.60;;
54823;SDS011;40724;53.196;5.980;2022-12-10T14:13:44;96.57;;;41.20;;
54823;SDS011;40724;53.196;5.980;2022-12-10T14:16:13;74.85;;;35.63;;
54823;SDS011;40724;53.196;5.980;2022-12-10T14:18:43;78.53;;;39.42;;
54823;SDS011;40724;53.196;5.980;2022-12-10T14:21:12;93.93;;;38.03;;
54823;SDS011;40724;53.196;5.980;2022-12-10T14:23:44;72.00;;;35.70;;
54823;SDS011;40724;53.196;5.980;2022-12-10T14:28:40;70.72;;;36.28;;
54823;SDS011;40724;53.196;5.980;2022-12-10T14:31:10;75.53;;;37.53;;
54823;SDS011;40724;53.196;5.980;2022-12-10T14:33:37;74.85;;;37.28;;
54823;SDS011;40724;53.196;5.980;2022-12-10T14:36:04;108.07;;;43.17;;
54823;SDS011;40724;53.196;5.980;2022-12-10T14:38:31;89.72;;;40.67;;
54823;SDS011;40724;53.196;5.980;2022-12-10T14:40:59;79.50;;;40.20;;
54823;SDS011;40724;53.196;5.980;2022-12-10T14:43:38;99.57;;;41.50;;
54823;SDS011;40724;53.196;5.980;2022-12-10T14:46:05;93.38;;;42.38;;
54823;SDS011;40724;53.196;5.980;2022-12-10T14:48:38;81.22;;;37.08;;
54823;SDS011;40724;53.196;5.980;2022-12-10T14:51:24;112.90;;;39.42;;
54823;SDS011;40724;53.196;5.980;2022-12-10T14:53:52;87.07;;;38.17;;
54823;SDS011;40724;53.196;5.980;2022-12-10T14:56:39;75.68;;;36.17;;
54823;SDS011;40724;53.196;5.980;2022-12-10T15:01:39;120.43;;;40.77;;
54823;SDS011;40724;53.196;5.980;2022-12-10T15:04:06;83.63;;;38.20;;
54823;SDS011;40724;53.196;5.980;2022-12-10T15:06:37;97.70;;;40.80;;
54823;SDS011;40724;53.196;5.980;2022-12-10T15:09:04;86.10;;;39.28;;
54823;SDS011;40724;53.196;5.980;2022-12-10T15:11:31;126.50;;;40.15;;
54823;SDS011;40724;53.196;5.980;2022-12-10T15:13:58;133.20;;;42.13;;
54823;SDS011;40724;53.196;5.980;2022-12-10T15:16:37;99.72;;;37.03;;
54823;SDS011;40724;53.196;5.980;2022-12-10T15:19:46;99.28;;;35.83;;
54823;SDS011;40724;53.196;5.980;2022-12-10T15:22:38;115.45;;;38.92;;
54823;SDS011;40724;53.196;5.980;2022-12-10T15:24:42;95.93;;;40.00;;
54823;SDS011;40724;53.196;5.980;2022-12-10T15:27:22;133.05;;;40.40;;
54823;SDS011;40724;53.196;5.980;2022-12-10T15:29:48;132.95;;;41.63;;
54823;SDS011;40724;53.196;5.980;2022-12-10T15:32:22;101.07;;;39.50;;
54823;SDS011;40724;53.196;5.980;2022-12-10T15:34:56;105.68;;;41.08;;
54823;SDS011;40724;53.196;5.980;2022-12-10T15:37:24;87.97;;;37.60;;
54823;SDS011;40724;53.196;5.980;2022-12-10T15:39:53;98.30;;;37.83;;
54823;SDS011;40724;53.196;5.980;2022-12-10T15:42:39;64.45;;;33.88;;
54823;SDS011;40724;53.196;5.980;2022-12-10T15:45:18;102.00;;;36.55;;
54823;SDS011;40724;53.196;5.980;2022-12-10T15:47:45;70.10;;;33.35;;
54823;SDS011;40724;53.196;5.980;2022-12-10T15:50:11;109.05;;;38.22;;
54823;SDS011;40724;53.196;5.980;2022-12-10T15:52:37;85.07;;;36.30;;
54823;SDS011;40724;53.196;5.980;2022-12-10T15:55:11;142.10;;;40.95;;
54823;SDS011;40724;53.196;5.980;2022-12-10T15:57:39;128.10;;;40.15;;
54823;SDS011;40724;53.196;5.980;2022-12-10T16:00:17;132.43;;;42.63;;
54823;SDS011;40724;53.196;5.980;2022-12-10T16:07:36;152.65;;;44.55;;
54823;SDS011;40724;53.196;5.980;2022-12-10T16:10:03;125.47;;;40.35;;
54823;SDS011;40724;53.196;5.980;2022-12-10T16:12:29;84.88;;;34.45;;
54823;SDS011;40724;53.196;5.980;2022-12-10T16:14:55;114.10;;;38.15;;
54823;SDS011;40724;53.196;5.980;2022-12-10T16:17:27;140.82;;;39.45;;
54823;SDS011;40724;53.196;5.980;2022-12-10T16:20:09;133.73;;;39.53;;
54823;SDS011;40724;53.196;5.980;2022-12-10T16:22:39;122.68;;;36.88;;
54823;SDS011;40724;53.196;5.980;2022-12-10T16:25:05;113.80;;;38.45;;
54823;SDS011;40724;53.196;5.980;2022-12-10T16:27:32;110.28;;;38.55;;